createdAt,value
2019-03-23T00:00:53.207Z,9.34
2019-03-23T00:01:53.203Z,9.32
2019-03-23T00:02:53.226Z,9.30
2019-03-23T00:03:53.188Z,9.24
2019-03-23T00:04:53.164Z,9.16
2019-03-23T00:05:53.153Z,9.05
2019-03-23T00:06:53.145Z,8.99
2019-03-23T00:07:53.141Z,8.93
2019-03-23T00:08:53.158Z,8.86
2019-03-23T00:09:53.150Z,8.76
2019-03-23T00:10:53.097Z,8.66
2019-03-23T00:11:53.085Z,8.57
2019-03-23T00:12:53.078Z,8.48
2019-03-23T00:13:53.066Z,8.50
2019-03-23T00:14:53.073Z,8.37
2019-03-23T00:15:53.056Z,8.33
2019-03-23T00:16:53.029Z,8.36
2019-03-23T00:17:53.018Z,8.26
2019-03-23T00:18:53.011Z,8.29
2019-03-23T00:19:53.045Z,8.21
2019-03-23T00:20:52.986Z,8.21
2019-03-23T00:21:52.997Z,8.20
2019-03-23T00:22:52.967Z,8.26
2019-03-23T00:23:52.968Z,8.18
2019-03-23T00:24:52.942Z,8.18
2019-03-23T00:25:52.969Z,8.22
2019-03-23T00:26:52.925Z,8.21
2019-03-23T00:27:52.942Z,8.20
2019-03-23T00:28:52.905Z,8.20
2019-03-23T00:29:52.890Z,8.22
2019-03-23T00:30:52.880Z,8.15
2019-03-23T00:31:52.866Z,8.14
2019-03-23T00:32:52.848Z,8.08
2019-03-23T00:33:52.860Z,8.11
2019-03-23T00:34:52.829Z,8.04
2019-03-23T00:35:52.822Z,8.07
2019-03-23T00:36:52.822Z,7.92
2019-03-23T00:37:52.796Z,7.93
2019-03-23T00:38:52.782Z,7.82
2019-03-23T00:39:52.786Z,7.92
2019-03-23T00:40:52.802Z,7.87
2019-03-23T00:41:52.796Z,7.89
2019-03-23T00:42:52.744Z,7.89
2019-03-23T00:43:52.725Z,7.84
2019-03-23T00:44:52.726Z,7.81
2019-03-23T00:45:52.706Z,7.77
2019-03-23T00:46:52.711Z,7.81
2019-03-23T00:47:52.686Z,7.71
2019-03-23T00:48:52.695Z,7.67
2019-03-23T00:49:52.674Z,7.63
2019-03-23T00:50:52.661Z,7.63
2019-03-23T00:51:52.661Z,7.56
2019-03-23T00:52:52.629Z,7.53
2019-03-23T00:53:52.663Z,7.44
2019-03-23T00:54:52.609Z,7.45
2019-03-23T00:55:52.593Z,7.35
2019-03-23T00:56:52.599Z,7.40
2019-03-23T00:57:52.576Z,7.32
2019-03-23T00:58:52.567Z,7.40
2019-03-23T00:59:52.599Z,7.45
2019-03-23T01:00:52.536Z,7.45
2019-03-23T01:01:52.546Z,7.52
2019-03-23T01:02:52.541Z,7.41
2019-03-23T01:03:52.500Z,7.32
2019-03-23T01:04:52.527Z,7.29
2019-03-23T01:05:52.477Z,7.23
2019-03-23T01:06:52.566Z,7.15
2019-03-23T01:07:52.462Z,7.09
2019-03-23T01:08:52.464Z,7.15
2019-03-23T01:09:52.436Z,7.01
2019-03-23T01:10:52.463Z,7.02
2019-03-23T01:11:52.411Z,7.02
2019-03-23T01:12:52.395Z,7.05
2019-03-23T01:13:52.429Z,6.99
2019-03-23T01:14:52.387Z,6.91
2019-03-23T01:15:52.374Z,7.01
2019-03-23T01:16:52.360Z,6.91
2019-03-23T01:17:52.350Z,6.97
2019-03-23T01:18:52.330Z,6.91
2019-03-23T01:19:52.339Z,6.95
2019-03-23T01:20:52.323Z,6.79
2019-03-23T01:21:52.309Z,6.84
2019-03-23T01:22:52.306Z,6.79
2019-03-23T01:23:52.287Z,6.76
2019-03-23T01:24:52.308Z,6.80
2019-03-23T01:25:52.281Z,6.71
2019-03-23T01:26:52.241Z,6.68
2019-03-23T01:27:52.231Z,6.76
2019-03-23T01:28:52.219Z,6.72
2019-03-23T01:29:52.263Z,6.66
2019-03-23T01:30:52.201Z,6.79
2019-03-23T01:31:52.199Z,6.79
2019-03-23T01:32:52.185Z,6.90
2019-03-23T01:33:52.170Z,6.89
2019-03-23T01:34:52.151Z,6.80
2019-03-23T01:35:52.139Z,6.81
2019-03-23T01:37:02.320Z,6.79
2019-03-23T01:37:53.116Z,6.83
2019-03-23T01:38:52.106Z,6.83
2019-03-23T01:39:52.093Z,6.76
2019-03-23T01:40:52.083Z,6.69
2019-03-23T01:41:52.139Z,6.73
2019-03-23T01:42:52.060Z,6.66
2019-03-23T01:43:52.050Z,6.68
2019-03-23T01:44:52.037Z,6.62
2019-03-23T01:45:52.027Z,6.61
2019-03-23T01:46:52.014Z,6.61
2019-03-23T01:47:52.048Z,6.62
2019-03-23T01:48:51.990Z,6.66
2019-03-23T01:49:51.985Z,6.73
2019-03-23T01:50:51.966Z,6.77
2019-03-23T01:51:51.957Z,6.77
2019-03-23T01:52:51.966Z,6.84
2019-03-23T01:53:51.960Z,6.94
2019-03-23T01:54:51.925Z,6.97
2019-03-23T01:55:51.914Z,6.98
2019-03-23T01:56:51.903Z,6.97
2019-03-23T01:57:51.907Z,6.97
2019-03-23T01:58:51.929Z,7.01
2019-03-23T01:59:51.866Z,6.95
2019-03-23T02:00:51.912Z,6.97
2019-03-23T02:01:51.846Z,6.91
2019-03-23T02:02:51.839Z,6.90
2019-03-23T02:03:51.826Z,6.95
2019-03-23T02:04:51.832Z,6.87
2019-03-23T02:05:51.802Z,6.79
2019-03-23T02:06:51.820Z,6.79
2019-03-23T02:07:51.786Z,6.76
2019-03-23T02:08:51.765Z,6.72
2019-03-23T02:09:51.773Z,6.68
2019-03-23T02:10:51.747Z,6.73
2019-03-23T02:11:51.737Z,6.79
2019-03-23T02:12:51.723Z,6.79
2019-03-23T02:13:51.760Z,6.72
2019-03-23T02:14:51.721Z,6.73
2019-03-23T02:15:51.688Z,6.77
2019-03-23T02:16:51.679Z,6.77
2019-03-23T02:17:51.670Z,6.63
2019-03-23T02:18:51.664Z,6.61
2019-03-23T02:19:51.677Z,6.62
2019-03-23T02:20:51.656Z,6.69
2019-03-23T02:21:51.641Z,6.66
2019-03-23T02:22:51.626Z,6.69
2019-03-23T02:23:51.613Z,6.68
2019-03-23T02:24:51.612Z,6.71
2019-03-23T02:25:51.605Z,6.69
2019-03-23T02:26:51.583Z,6.79
2019-03-23T02:27:51.589Z,6.69
2019-03-23T02:28:51.547Z,6.72
2019-03-23T02:29:51.545Z,6.81
2019-03-23T02:30:51.525Z,6.79
2019-03-23T02:31:51.525Z,6.76
2019-03-23T02:32:51.501Z,6.76
2019-03-23T02:33:51.518Z,6.90
2019-03-23T02:34:51.523Z,6.90
2019-03-23T02:35:51.466Z,6.99
2019-03-23T02:36:51.464Z,6.91
2019-03-23T02:37:51.455Z,6.89
2019-03-23T02:38:51.435Z,6.79
2019-03-23T02:39:51.489Z,6.81
2019-03-23T02:40:51.416Z,6.73
2019-03-23T02:41:51.397Z,6.71
2019-03-23T02:42:51.396Z,6.62
2019-03-23T02:43:51.376Z,6.61
2019-03-23T02:44:51.372Z,6.46
2019-03-23T02:45:51.420Z,6.46
2019-03-23T02:46:51.353Z,6.32
2019-03-23T02:47:51.341Z,6.32
2019-03-23T02:48:51.329Z,6.28
2019-03-23T02:49:51.312Z,6.29
2019-03-23T02:50:51.339Z,6.29
2019-03-23T02:51:51.288Z,6.21
2019-03-23T02:52:51.300Z,6.13
2019-03-23T02:53:51.268Z,6.14
2019-03-23T02:54:51.256Z,6.14
2019-03-23T02:55:51.257Z,6.13
2019-03-23T02:56:51.264Z,6.11
2019-03-23T02:57:51.229Z,6.16
2019-03-23T02:58:51.254Z,6.16
2019-03-23T02:59:51.223Z,6.16
2019-03-23T03:00:51.190Z,6.09
2019-03-23T03:01:51.176Z,6.01
2019-03-23T03:02:51.167Z,5.98
2019-03-23T03:03:51.161Z,5.85
2019-03-23T03:04:51.157Z,5.88
2019-03-23T03:05:51.133Z,5.92
2019-03-23T03:06:51.159Z,5.78
2019-03-23T03:07:51.124Z,5.77
2019-03-23T03:08:51.105Z,5.78
2019-03-23T03:09:51.097Z,5.71
2019-03-23T03:10:51.075Z,5.85
2019-03-23T03:11:51.073Z,5.78
2019-03-23T03:12:51.081Z,5.95
2019-03-23T03:13:51.047Z,5.78
2019-03-23T03:14:51.049Z,5.78
2019-03-23T03:15:51.023Z,5.74
2019-03-23T03:16:51.005Z,5.68
2019-03-23T03:17:50.996Z,5.68
2019-03-23T03:18:51.000Z,5.66
2019-03-23T03:19:51.007Z,5.71
2019-03-23T03:20:50.975Z,5.71
2019-03-23T03:21:50.953Z,5.68
2019-03-23T03:22:50.942Z,5.75
2019-03-23T03:23:50.928Z,5.77
2019-03-23T03:24:50.920Z,5.70
2019-03-23T03:25:50.955Z,5.71
2019-03-23T03:26:50.894Z,5.63
2019-03-23T03:27:50.889Z,5.55
2019-03-23T03:28:50.878Z,5.57
2019-03-23T03:29:50.871Z,5.59
2019-03-23T03:30:50.866Z,5.52
2019-03-23T03:31:50.900Z,5.45
2019-03-23T03:32:50.859Z,5.49
2019-03-23T03:33:50.858Z,5.52
2019-03-23T03:34:50.806Z,5.41
2019-03-23T03:35:50.800Z,5.43
2019-03-23T03:36:50.787Z,5.43
2019-03-23T03:37:56.868Z,5.34
2019-03-23T03:38:51.813Z,5.32
2019-03-23T03:39:50.756Z,5.35
2019-03-23T03:40:50.745Z,5.23
2019-03-23T03:41:50.732Z,5.25
2019-03-23T03:42:50.731Z,5.35
2019-03-23T03:43:50.743Z,5.30
2019-03-23T03:44:50.718Z,5.25
2019-03-23T03:45:50.720Z,5.19
2019-03-23T03:46:50.677Z,5.19
2019-03-23T03:47:50.665Z,5.17
2019-03-23T03:48:50.659Z,5.13
2019-03-23T03:49:50.685Z,5.12
2019-03-23T03:50:50.656Z,5.10
2019-03-23T03:51:50.623Z,5.04
2019-03-23T03:52:50.610Z,5.05
2019-03-23T03:53:50.626Z,5.05
2019-03-23T03:54:50.592Z,5.07
2019-03-23T03:55:50.598Z,5.10
2019-03-23T03:56:50.579Z,5.07
2019-03-23T03:57:50.557Z,5.12
2019-03-23T03:58:50.552Z,5.14
2019-03-23T03:59:50.574Z,5.10
2019-03-23T04:00:50.592Z,5.13
2019-03-23T04:01:50.506Z,5.17
2019-03-23T04:02:50.516Z,5.19
2019-03-23T04:03:50.484Z,5.17
2019-03-23T04:04:50.523Z,5.16
2019-03-23T04:05:50.481Z,5.09
2019-03-23T04:06:50.494Z,5.13
2019-03-23T04:07:50.445Z,5.09
2019-03-23T04:08:50.432Z,5.10
2019-03-23T04:09:50.418Z,5.07
2019-03-23T04:10:50.427Z,5.07
2019-03-23T04:11:50.392Z,5.09
2019-03-23T04:12:50.382Z,5.12
2019-03-23T04:13:50.372Z,5.09
2019-03-23T04:14:50.395Z,4.98
2019-03-23T04:15:50.384Z,4.95
2019-03-23T04:16:50.400Z,5.05
2019-03-23T04:17:50.326Z,4.94
2019-03-23T04:18:50.318Z,4.96
2019-03-23T04:19:50.311Z,4.92
2019-03-23T04:20:50.309Z,4.95
2019-03-23T04:21:50.285Z,5.02
2019-03-23T04:22:50.372Z,4.95
2019-03-23T04:23:50.262Z,4.91
2019-03-23T04:24:50.263Z,5.02
2019-03-23T04:25:50.236Z,4.95
2019-03-23T04:26:50.224Z,5.04
2019-03-23T04:27:50.231Z,5.02
2019-03-23T04:28:50.223Z,5.02
2019-03-23T04:29:50.193Z,5.20
2019-03-23T04:30:50.237Z,5.28
2019-03-23T04:31:50.177Z,5.25
2019-03-23T04:32:50.163Z,5.40
2019-03-23T04:33:50.164Z,5.48
2019-03-23T04:34:50.142Z,5.52
2019-03-23T04:35:50.148Z,5.52
2019-03-23T04:36:50.115Z,5.45
2019-03-23T04:37:50.106Z,5.40
2019-03-23T04:38:50.119Z,5.48
2019-03-23T04:39:50.106Z,5.35
2019-03-23T04:40:50.079Z,5.30
2019-03-23T04:41:50.057Z,5.25
2019-03-23T04:42:50.107Z,5.22
2019-03-23T04:43:50.036Z,5.22
2019-03-23T04:44:50.061Z,5.22
2019-03-23T04:45:50.011Z,5.19
2019-03-23T04:46:50.008Z,5.25
2019-03-23T04:47:50.014Z,5.31
2019-03-23T04:48:49.981Z,5.31
2019-03-23T04:49:49.988Z,5.28
2019-03-23T04:50:49.973Z,5.28
2019-03-23T04:51:49.954Z,5.34
2019-03-23T04:52:49.936Z,5.31
2019-03-23T04:53:49.923Z,5.23
2019-03-23T04:54:49.916Z,5.31
2019-03-23T04:55:49.917Z,5.22
2019-03-23T04:56:49.899Z,5.13
2019-03-23T04:57:49.912Z,5.12
2019-03-23T04:58:49.867Z,5.12
2019-03-23T04:59:49.863Z,5.10
2019-03-23T05:00:49.865Z,5.05
2019-03-23T05:01:49.836Z,5.09
2019-03-23T05:02:49.858Z,4.99
2019-03-23T05:03:49.813Z,5.17
2019-03-23T05:04:49.837Z,4.98
2019-03-23T05:05:49.825Z,4.96
2019-03-23T05:06:49.777Z,5.14
2019-03-23T05:07:49.801Z,5.12
2019-03-23T05:08:49.757Z,5.04
2019-03-23T05:09:49.747Z,5.19
2019-03-23T05:10:49.740Z,5.22
2019-03-23T05:11:49.725Z,5.28
2019-03-23T05:12:49.714Z,5.22
2019-03-23T05:13:49.732Z,5.07
2019-03-23T05:14:49.695Z,5.14
2019-03-23T05:15:49.676Z,5.13
2019-03-23T05:16:49.665Z,5.17
2019-03-23T05:17:49.669Z,5.22
2019-03-23T05:18:49.646Z,5.31
2019-03-23T05:19:49.645Z,5.27
2019-03-23T05:20:49.622Z,5.31
2019-03-23T05:21:49.662Z,5.34
2019-03-23T05:22:49.597Z,5.40
2019-03-23T05:23:49.592Z,5.37
2019-03-23T05:24:49.619Z,5.34
2019-03-23T05:25:49.568Z,5.32
2019-03-23T05:26:49.555Z,5.43
2019-03-23T05:27:49.570Z,5.41
2019-03-23T05:28:49.532Z,5.38
2019-03-23T05:29:49.524Z,5.40
2019-03-23T05:30:49.530Z,5.40
2019-03-23T05:31:49.498Z,5.48
2019-03-23T05:32:49.493Z,5.48
2019-03-23T05:33:49.475Z,5.52
2019-03-23T05:34:49.474Z,5.57
2019-03-23T05:35:49.491Z,5.55
2019-03-23T05:36:49.456Z,5.63
2019-03-23T05:37:49.431Z,5.64
2019-03-23T05:38:49.420Z,5.56
2019-03-23T05:39:49.416Z,5.63
2019-03-23T05:40:49.397Z,5.56
2019-03-23T05:41:49.426Z,5.66
2019-03-23T05:42:49.403Z,5.73
2019-03-23T05:43:49.381Z,5.70
2019-03-23T05:44:49.350Z,5.74
2019-03-23T05:45:49.343Z,5.89
2019-03-23T05:46:49.343Z,5.89
2019-03-23T05:47:49.345Z,5.86
2019-03-23T05:48:49.307Z,5.86
2019-03-23T05:49:49.303Z,6.03
2019-03-23T05:50:49.295Z,6.30
2019-03-23T05:51:49.277Z,6.46
2019-03-23T05:52:49.288Z,6.58
2019-03-23T05:53:49.270Z,6.50
2019-03-23T05:54:49.244Z,6.59
2019-03-23T05:55:49.248Z,6.66
2019-03-23T05:56:49.227Z,6.65
2019-03-23T05:57:49.211Z,6.61
2019-03-23T05:58:49.212Z,6.61
2019-03-23T05:59:49.187Z,6.77
2019-03-23T06:00:49.180Z,6.79
2019-03-23T06:01:49.178Z,6.89
2019-03-23T06:02:49.182Z,6.90
2019-03-23T06:03:49.158Z,6.94
2019-03-23T06:04:49.132Z,7.05
2019-03-23T06:05:49.118Z,7.16
2019-03-23T06:06:49.110Z,7.13
2019-03-23T06:07:49.101Z,7.19
2019-03-23T06:08:55.001Z,7.17
2019-03-23T06:09:50.074Z,7.26
2019-03-23T06:10:49.098Z,7.31
2019-03-23T06:11:49.052Z,7.40
2019-03-23T06:12:49.042Z,7.37
2019-03-23T06:13:49.030Z,7.40
2019-03-23T06:14:49.017Z,7.50
2019-03-23T06:15:49.011Z,7.78
2019-03-23T06:16:49.044Z,7.92
2019-03-23T06:17:48.984Z,8.25
2019-03-23T06:18:48.970Z,8.47
2019-03-23T06:19:48.958Z,8.60
2019-03-23T06:20:48.952Z,8.90
2019-03-23T06:21:48.960Z,9.06
2019-03-23T06:22:48.945Z,9.30
2019-03-23T06:23:48.921Z,9.35
2019-03-23T06:24:48.915Z,9.31
2019-03-23T06:25:48.917Z,9.23
2019-03-23T06:26:48.911Z,9.05
2019-03-23T06:27:48.874Z,8.88
2019-03-23T06:28:48.859Z,8.78
2019-03-23T06:29:48.847Z,8.62
2019-03-23T06:30:48.848Z,8.57
2019-03-23T06:31:48.825Z,8.55
2019-03-23T06:32:48.842Z,8.48
2019-03-23T06:33:48.833Z,8.37
2019-03-23T06:34:48.797Z,8.28
2019-03-23T06:35:48.791Z,8.22
2019-03-23T06:36:48.775Z,8.32
2019-03-23T06:37:48.773Z,8.15
2019-03-23T06:38:48.772Z,8.11
2019-03-23T06:39:48.761Z,8.22
2019-03-23T06:40:48.748Z,8.12
2019-03-23T06:41:48.730Z,8.08
2019-03-23T06:42:59.142Z,8.03
2019-03-23T06:43:49.696Z,8.07
2019-03-23T06:44:48.717Z,8.10
2019-03-23T06:45:48.667Z,8.03
2019-03-23T06:46:48.661Z,7.99
2019-03-23T06:47:48.652Z,7.96
2019-03-23T06:48:48.652Z,8.04
2019-03-23T06:49:48.648Z,8.03
2019-03-23T06:50:48.646Z,7.96
2019-03-23T06:51:48.656Z,8.00
2019-03-23T06:52:48.613Z,7.99
2019-03-23T06:53:48.588Z,7.90
2019-03-23T06:54:48.569Z,7.96
2019-03-23T06:55:48.583Z,7.94
2019-03-23T06:56:48.571Z,8.07
2019-03-23T06:57:48.541Z,8.02
2019-03-23T06:58:48.523Z,8.03
2019-03-23T06:59:48.513Z,8.02
2019-03-23T07:00:48.566Z,8.07
2019-03-23T07:01:48.541Z,8.04
2019-03-23T07:02:48.485Z,8.04
2019-03-23T07:03:48.470Z,8.00
2019-03-23T07:04:48.458Z,8.02
2019-03-23T07:05:48.448Z,8.08
2019-03-23T07:06:48.437Z,8.04
2019-03-23T07:07:48.449Z,7.96
2019-03-23T07:08:48.408Z,7.99
2019-03-23T07:09:48.405Z,8.07
2019-03-23T07:10:48.392Z,8.12
2019-03-23T07:11:48.373Z,7.96
2019-03-23T07:12:48.379Z,8.02
2019-03-23T07:13:48.400Z,8.02
2019-03-23T07:14:48.354Z,7.94
2019-03-23T07:15:48.326Z,7.96
2019-03-23T07:16:48.325Z,7.94
2019-03-23T07:17:48.306Z,7.92
2019-03-23T07:18:48.296Z,8.03
2019-03-23T07:19:48.299Z,8.02
2019-03-23T07:20:48.278Z,8.10
2019-03-23T07:21:48.265Z,8.14
2019-03-23T07:22:48.263Z,8.17
2019-03-23T07:23:48.254Z,8.22
2019-03-23T07:24:48.250Z,8.21
2019-03-23T07:25:48.227Z,8.26
2019-03-23T07:26:48.205Z,8.11
2019-03-23T07:27:48.207Z,8.07
2019-03-23T07:28:48.193Z,7.93
2019-03-23T07:29:48.268Z,7.90
2019-03-23T07:30:48.177Z,7.96
2019-03-23T07:31:48.146Z,7.92
2019-03-23T07:32:48.137Z,7.99
2019-03-23T07:33:48.156Z,7.89
2019-03-23T07:34:48.160Z,7.89
2019-03-23T07:35:48.138Z,7.90
2019-03-23T07:36:48.099Z,7.90
2019-03-23T07:37:48.090Z,8.03
2019-03-23T07:38:48.074Z,8.07
2019-03-23T07:39:48.068Z,8.04
2019-03-23T07:40:48.056Z,8.04
2019-03-23T07:41:48.062Z,8.02
2019-03-23T07:42:48.045Z,8.12
2019-03-23T07:43:48.021Z,8.11
2019-03-23T07:44:48.009Z,8.12
2019-03-23T07:45:47.999Z,8.11
2019-03-23T07:46:47.990Z,8.04
2019-03-23T07:47:48.029Z,7.97
2019-03-23T07:48:47.977Z,8.02
2019-03-23T07:49:47.956Z,8.10
2019-03-23T07:50:47.933Z,7.94
2019-03-23T07:51:47.927Z,7.96
2019-03-23T07:52:47.918Z,7.94
2019-03-23T07:53:47.943Z,7.90
2019-03-23T07:54:47.902Z,7.92
2019-03-23T07:55:47.896Z,7.96
2019-03-23T07:56:47.867Z,7.94
2019-03-23T07:57:47.860Z,7.93
2019-03-23T07:58:47.844Z,8.00
2019-03-23T07:59:47.851Z,8.00
2019-03-23T08:00:47.850Z,7.92
2019-03-23T08:01:47.841Z,7.82
2019-03-23T08:02:47.806Z,7.59
2019-03-23T08:03:47.837Z,7.62
2019-03-23T08:04:47.825Z,7.59
2019-03-23T08:05:47.772Z,7.63
2019-03-23T08:06:47.754Z,7.62
2019-03-23T08:07:47.744Z,7.71
2019-03-23T08:08:47.732Z,7.53
2019-03-23T08:09:47.719Z,7.47
2019-03-23T08:10:47.743Z,7.50
2019-03-23T08:11:47.695Z,7.38
2019-03-23T08:12:47.691Z,7.42
2019-03-23T08:13:47.681Z,7.45
2019-03-23T08:14:47.669Z,7.45
2019-03-23T08:15:47.672Z,7.44
2019-03-23T08:16:47.640Z,7.69
2019-03-23T08:17:47.633Z,7.62
2019-03-23T08:18:47.642Z,7.75
2019-03-23T08:19:47.613Z,7.81
2019-03-23T08:20:47.595Z,7.75
2019-03-23T08:21:47.591Z,7.66
2019-03-23T08:22:47.585Z,7.67
2019-03-23T08:23:47.587Z,7.82
2019-03-23T08:24:47.552Z,7.82
2019-03-23T08:25:47.550Z,7.78
2019-03-23T08:26:47.545Z,7.87
2019-03-23T08:27:47.519Z,7.90
2019-03-23T08:28:47.523Z,7.96
2019-03-23T08:29:47.506Z,7.89
2019-03-23T08:30:47.483Z,7.82
2019-03-23T08:31:47.477Z,7.87
2019-03-23T08:32:47.462Z,7.96
2019-03-23T08:33:47.514Z,7.90
2019-03-23T08:34:47.441Z,7.94
2019-03-23T08:35:47.428Z,7.92
2019-03-23T08:36:47.422Z,7.89
2019-03-23T08:37:47.422Z,7.79
2019-03-23T08:38:47.412Z,7.87
2019-03-23T08:39:48.743Z,7.90
2019-03-23T08:40:47.378Z,7.90
2019-03-23T08:41:47.411Z,7.81
2019-03-23T08:42:47.362Z,7.92
2019-03-23T08:43:47.354Z,7.92
2019-03-23T08:44:47.326Z,8.00
2019-03-23T08:45:47.314Z,8.04
2019-03-23T08:46:47.352Z,7.90
2019-03-23T08:47:47.307Z,7.96
2019-03-23T08:48:47.287Z,7.79
2019-03-23T08:49:47.273Z,7.93
2019-03-23T08:50:47.260Z,7.62
2019-03-23T08:51:47.332Z,7.62
2019-03-23T08:52:47.435Z,7.78
2019-03-23T08:53:47.225Z,7.79
2019-03-23T08:54:47.218Z,7.85
2019-03-23T08:55:47.209Z,7.96
2019-03-23T08:56:47.197Z,8.04
2019-03-23T08:57:47.213Z,7.94
2019-03-23T08:58:47.168Z,7.89
2019-03-23T08:59:47.165Z,7.96
2019-03-23T09:00:47.143Z,8.04
2019-03-23T09:01:47.172Z,8.08
2019-03-23T09:02:47.135Z,8.21
2019-03-23T09:03:52.499Z,8.10
2019-03-23T09:04:48.102Z,8.17
2019-03-23T09:05:47.100Z,8.04
2019-03-23T09:06:47.118Z,8.08
2019-03-23T09:07:47.067Z,8.10
2019-03-23T09:08:47.106Z,8.03
2019-03-23T09:09:47.044Z,8.00
2019-03-23T09:10:47.045Z,8.07
2019-03-23T09:11:47.043Z,8.02
2019-03-23T09:12:47.009Z,7.96
2019-03-23T09:13:47.016Z,7.99
2019-03-23T09:14:46.986Z,7.94
2019-03-23T09:15:46.992Z,8.03
2019-03-23T09:16:46.995Z,8.14
2019-03-23T09:17:46.951Z,8.15
2019-03-23T09:18:46.949Z,8.07
2019-03-23T09:19:46.944Z,8.08
2019-03-23T09:20:46.921Z,7.94
2019-03-23T09:21:46.911Z,7.87
2019-03-23T09:22:46.966Z,8.10
2019-03-23T09:23:46.930Z,8.00
2019-03-23T09:24:46.891Z,8.11
2019-03-23T09:25:46.865Z,8.11
2019-03-23T09:26:46.850Z,8.22
2019-03-23T09:27:46.839Z,8.32
2019-03-23T09:28:46.862Z,8.39
2019-03-23T09:29:46.847Z,8.28
2019-03-23T09:30:46.824Z,7.92
2019-03-23T09:31:46.800Z,7.96
2019-03-23T09:32:46.792Z,8.08
2019-03-23T09:33:46.800Z,8.20
2019-03-23T09:34:46.795Z,8.25
2019-03-23T09:35:46.749Z,8.25
2019-03-23T09:36:46.777Z,8.45
2019-03-23T09:37:46.728Z,8.57
2019-03-23T09:38:46.715Z,8.60
2019-03-23T09:39:46.701Z,8.60
2019-03-23T09:40:46.735Z,8.62
2019-03-23T09:41:46.681Z,8.65
2019-03-23T09:42:46.668Z,8.83
2019-03-23T09:43:46.716Z,8.90
2019-03-23T09:44:46.650Z,8.79
2019-03-23T09:45:46.663Z,8.76
2019-03-23T09:46:46.897Z,8.72
2019-03-23T09:47:46.834Z,8.63
2019-03-23T09:48:46.602Z,8.53
2019-03-23T09:49:46.589Z,8.26
2019-03-23T09:50:46.577Z,7.96
2019-03-23T09:51:46.569Z,8.02
2019-03-23T09:52:46.586Z,7.96
2019-03-23T09:53:46.545Z,8.04
2019-03-23T09:54:46.545Z,8.02
2019-03-23T09:55:46.531Z,7.90
2019-03-23T09:56:46.513Z,7.81
2019-03-23T09:57:46.768Z,7.85
2019-03-23T09:58:46.699Z,7.90
2019-03-23T09:59:46.507Z,8.00
2019-03-23T10:00:46.470Z,8.00
2019-03-23T10:01:46.462Z,7.97
2019-03-23T10:02:46.455Z,7.92
2019-03-23T10:03:46.463Z,7.87
2019-03-23T10:04:46.426Z,7.79
2019-03-23T10:05:46.410Z,7.78
2019-03-23T10:06:46.423Z,7.93
2019-03-23T10:07:46.403Z,7.89
2019-03-23T10:08:46.590Z,8.02
2019-03-23T10:09:46.395Z,7.99
2019-03-23T10:10:46.361Z,8.11
2019-03-23T10:11:46.351Z,8.11
2019-03-23T10:12:46.361Z,8.21
2019-03-23T10:13:46.320Z,8.14
2019-03-23T10:14:46.320Z,8.22
2019-03-23T10:15:46.305Z,8.25
2019-03-23T10:16:46.313Z,8.26
2019-03-23T10:17:46.275Z,8.26
2019-03-23T10:18:46.309Z,8.37
2019-03-23T10:19:46.253Z,8.29
2019-03-23T10:20:46.244Z,8.28
2019-03-23T10:21:46.237Z,8.22
2019-03-23T10:22:46.245Z,8.22
2019-03-23T10:23:46.223Z,8.21
2019-03-23T10:24:46.210Z,8.22
2019-03-23T10:25:46.189Z,8.20
2019-03-23T10:26:46.190Z,8.10
2019-03-23T10:27:46.164Z,8.04
2019-03-23T10:28:46.166Z,8.04
2019-03-23T10:29:46.183Z,8.07
2019-03-23T10:30:46.145Z,8.10
2019-03-23T10:31:46.149Z,8.14
2019-03-23T10:32:46.128Z,8.17
2019-03-23T10:33:46.123Z,8.07
2019-03-23T10:34:46.093Z,8.07
2019-03-23T10:35:46.086Z,8.07
2019-03-23T10:36:46.074Z,8.03
2019-03-23T10:37:46.048Z,8.18
2019-03-23T10:38:46.035Z,8.12
2019-03-23T10:39:46.050Z,8.12
2019-03-23T10:40:46.057Z,8.14
2019-03-23T10:41:46.007Z,8.02
2019-03-23T10:42:46.009Z,8.14
2019-03-23T10:43:45.986Z,8.07
2019-03-23T10:44:45.980Z,8.14
2019-03-23T10:45:45.992Z,8.15
2019-03-23T10:46:45.951Z,8.08
2019-03-23T10:47:46.113Z,8.11
2019-03-23T10:48:45.927Z,8.03
2019-03-23T10:49:45.933Z,8.07
2019-03-23T10:50:45.911Z,8.20
2019-03-23T10:51:45.929Z,8.18
2019-03-23T10:52:45.878Z,8.26
2019-03-23T10:53:45.874Z,8.35
2019-03-23T10:54:45.868Z,8.35
2019-03-23T10:55:45.849Z,8.35
2019-03-23T10:56:45.834Z,8.29
2019-03-23T10:57:45.839Z,8.37
2019-03-23T10:58:45.811Z,8.36
2019-03-23T10:59:45.806Z,8.47
2019-03-23T11:00:45.794Z,8.33
2019-03-23T11:01:45.799Z,8.44
2019-03-23T11:02:45.794Z,8.55
2019-03-23T11:03:45.768Z,8.26
2019-03-23T11:04:45.742Z,8.40
2019-03-23T11:05:45.760Z,8.45
2019-03-23T11:06:45.752Z,8.48
2019-03-23T11:07:45.716Z,8.63
2019-03-23T11:08:45.710Z,8.65
2019-03-23T11:09:45.712Z,8.76
2019-03-23T11:10:45.680Z,8.75
2019-03-23T11:11:45.679Z,8.81
2019-03-23T11:12:45.674Z,8.76
2019-03-23T11:13:45.681Z,8.75
2019-03-23T11:14:45.629Z,8.75
2019-03-23T11:15:45.619Z,8.88
2019-03-23T11:16:45.614Z,8.96
2019-03-23T11:17:45.607Z,8.83
2019-03-23T11:18:45.583Z,8.91
2019-03-23T11:19:45.619Z,8.90
2019-03-23T11:20:45.563Z,8.86
2019-03-23T11:21:45.585Z,8.88
2019-03-23T11:22:45.555Z,8.91
2019-03-23T11:23:45.677Z,8.90
2019-03-23T11:24:45.524Z,8.93
2019-03-23T11:25:45.527Z,8.94
2019-03-23T11:26:45.506Z,8.94
2019-03-23T11:27:45.482Z,8.88
2019-03-23T11:28:45.475Z,8.87
2019-03-23T11:29:45.470Z,8.73
2019-03-23T11:30:45.478Z,8.84
2019-03-23T11:31:45.439Z,8.93
2019-03-23T11:32:45.439Z,9.02
2019-03-23T11:33:45.455Z,9.04
2019-03-23T11:34:45.407Z,9.20
2019-03-23T11:35:45.416Z,9.27
2019-03-23T11:36:45.380Z,9.18
2019-03-23T11:37:45.633Z,9.24
2019-03-23T11:38:45.366Z,9.18
2019-03-23T11:39:45.364Z,9.21
2019-03-23T11:40:52.897Z,9.28
2019-03-23T11:41:46.334Z,9.39
2019-03-23T11:42:50.307Z,9.46
2019-03-23T11:43:46.334Z,9.28
2019-03-23T11:44:45.358Z,9.09
2019-03-23T11:45:45.326Z,9.16
2019-03-23T11:46:45.283Z,9.24
2019-03-23T11:47:45.272Z,9.39
2019-03-23T11:48:45.248Z,9.25
2019-03-23T11:49:45.257Z,9.06
2019-03-23T11:50:45.224Z,9.10
2019-03-23T11:51:45.240Z,9.18
2019-03-23T11:52:47.030Z,9.32
2019-03-23T11:53:45.192Z,9.28
2019-03-23T11:54:45.185Z,9.24
2019-03-23T11:55:45.175Z,9.32
2019-03-23T11:56:45.159Z,9.53
2019-03-23T11:57:45.231Z,9.45
2019-03-23T11:58:45.135Z,9.57
2019-03-23T11:59:45.128Z,9.63
2019-03-23T12:00:45.117Z,9.79
2019-03-23T12:01:51.813Z,9.91
2019-03-23T12:02:46.130Z,10.14
2019-03-23T12:03:45.087Z,10.26
2019-03-23T12:04:45.069Z,10.19
2019-03-23T12:05:45.098Z,10.39
2019-03-23T12:06:45.069Z,10.33
2019-03-23T12:07:45.040Z,10.33
2019-03-23T12:08:45.044Z,10.37
2019-03-23T12:09:45.063Z,10.53
2019-03-23T12:10:45.048Z,10.39
2019-03-23T12:11:44.990Z,10.37
2019-03-23T12:12:44.986Z,10.39
2019-03-23T12:13:44.995Z,10.39
2019-03-23T12:14:44.963Z,10.42
2019-03-23T12:15:44.963Z,10.52
2019-03-23T12:16:44.959Z,10.53
2019-03-23T12:17:44.918Z,10.52
2019-03-23T12:18:44.907Z,10.43
2019-03-23T12:19:44.922Z,10.47
2019-03-23T12:20:44.941Z,10.68
2019-03-23T12:21:44.881Z,10.86
2019-03-23T12:22:44.874Z,10.74
2019-03-23T12:23:44.874Z,10.81
2019-03-23T12:24:44.841Z,10.99
2019-03-23T12:25:44.838Z,11.03
2019-03-23T12:26:44.838Z,11.17
2019-03-23T12:27:44.803Z,11.27
2019-03-23T12:28:44.812Z,11.38
2019-03-23T12:29:44.780Z,11.64
2019-03-23T12:30:44.799Z,11.87
2019-03-23T12:31:44.763Z,12.09
2019-03-23T12:32:44.754Z,12.08
2019-03-23T12:33:44.748Z,12.08
2019-03-23T12:34:44.728Z,11.97
2019-03-23T12:35:44.751Z,12.16
2019-03-23T12:36:44.722Z,12.15
2019-03-23T12:37:44.694Z,12.12
2019-03-23T12:38:44.687Z,11.82
2019-03-23T12:39:44.682Z,11.70
2019-03-23T12:40:44.656Z,11.50
2019-03-23T12:41:44.702Z,11.56
2019-03-23T12:42:44.643Z,11.19
2019-03-23T12:43:44.644Z,11.03
2019-03-23T12:44:44.636Z,10.83
2019-03-23T12:45:44.612Z,11.13
2019-03-23T12:46:48.420Z,11.25
2019-03-23T12:47:44.608Z,11.34
2019-03-23T12:48:44.569Z,11.31
2019-03-23T12:49:44.562Z,11.34
2019-03-23T12:50:44.545Z,11.41
2019-03-23T12:51:44.560Z,11.34
2019-03-23T12:52:44.528Z,11.41
2019-03-23T12:53:44.524Z,11.70
2019-03-23T12:54:44.502Z,11.83
2019-03-23T12:55:44.494Z,11.65
2019-03-23T12:56:44.507Z,11.74
2019-03-23T12:57:44.479Z,11.74
2019-03-23T12:58:44.474Z,12.08
2019-03-23T12:59:44.446Z,12.19
2019-03-23T13:00:44.430Z,12.42
2019-03-23T13:01:44.427Z,12.33
2019-03-23T13:02:44.454Z,12.16
2019-03-23T13:03:44.413Z,12.24
2019-03-23T13:04:44.407Z,12.24
2019-03-23T13:05:44.383Z,12.42
2019-03-23T13:06:44.434Z,12.45
2019-03-23T13:07:44.368Z,12.30
2019-03-23T13:08:44.363Z,12.41
2019-03-23T13:09:44.333Z,12.46
2019-03-23T13:10:44.325Z,12.24
2019-03-23T13:11:44.319Z,12.15
2019-03-23T13:12:44.325Z,12.34
2019-03-23T13:13:44.286Z,12.16
2019-03-23T13:14:44.278Z,12.39
2019-03-23T13:15:44.318Z,12.54